sensor_id;sensor_type;location;lat;lon;timestamp;P1;durP1;ratioP1;P2;durP2;ratioP2
23358;SDS011;11851;50.796;4.372;2022-08-18T00:02:25;54.83;;;37.97;;
23358;SDS011;11851;50.796;4.372;2022-08-18T00:04:53;54.10;;;38.15;;
23358;SDS011;11851;50.796;4.372;2022-08-18T00:07:21;58.80;;;38.20;;
23358;SDS011;11851;50.796;4.372;2022-08-18T00:09:52;54.50;;;36.63;;
23358;SDS011;11851;50.796;4.372;2022-08-18T00:12:20;58.30;;;38.13;;
23358;SDS011;11851;50.796;4.372;2022-08-18T00:14:51;61.05;;;40.20;;
23358;SDS011;11851;50.796;4.372;2022-08-18T00:17:17;59.72;;;40.78;;
23358;SDS011;11851;50.796;4.372;2022-08-18T00:19:44;61.20;;;40.75;;
23358;SDS011;11851;50.796;4.372;2022-08-18T00:22:11;63.22;;;40.63;;
23358;SDS011;11851;50.796;4.372;2022-08-18T00:24:39;61.38;;;41.42;;
23358;SDS011;11851;50.796;4.372;2022-08-18T00:27:05;65.97;;;43.95;;
23358;SDS011;11851;50.796;4.372;2022-08-18T00:29:31;57.80;;;40.33;;
23358;SDS011;11851;50.796;4.372;2022-08-18T00:31:56;59.22;;;40.30;;
23358;SDS011;11851;50.796;4.372;2022-08-18T00:34:23;62.58;;;41.72;;
23358;SDS011;11851;50.796;4.372;2022-08-18T00:36:48;65.47;;;43.25;;
23358;SDS011;11851;50.796;4.372;2022-08-18T00:39:14;64.82;;;42.70;;
23358;SDS011;11851;50.796;4.372;2022-08-18T00:41:40;67.70;;;43.53;;
23358;SDS011;11851;50.796;4.372;2022-08-18T00:44:06;67.57;;;43.88;;
23358;SDS011;11851;50.796;4.372;2022-08-18T00:46:34;68.85;;;42.92;;
23358;SDS011;11851;50.796;4.372;2022-08-18T00:49:01;64.18;;;42.47;;
23358;SDS011;11851;50.796;4.372;2022-08-18T00:51:39;67.28;;;42.65;;
23358;SDS011;11851;50.796;4.372;2022-08-18T00:56:35;70.53;;;45.25;;
23358;SDS011;11851;50.796;4.372;2022-08-18T00:59:06;66.65;;;43.50;;
23358;SDS011;11851;50.796;4.372;2022-08-18T01:01:54;61.85;;;41.40;;
23358;SDS011;11851;50.796;4.372;2022-08-18T01:04:41;67.25;;;42.95;;
23358;SDS011;11851;50.796;4.372;2022-08-18T01:07:17;61.92;;;39.88;;
23358;SDS011;11851;50.796;4.372;2022-08-18T01:09:47;54.25;;;36.83;;
23358;SDS011;11851;50.796;4.372;2022-08-18T01:12:13;56.20;;;39.45;;
23358;SDS011;11851;50.796;4.372;2022-08-18T01:14:38;57.63;;;40.30;;
23358;SDS011;11851;50.796;4.372;2022-08-18T01:17:04;62.95;;;42.55;;
23358;SDS011;11851;50.796;4.372;2022-08-18T01:19:48;63.35;;;42.33;;
23358;SDS011;11851;50.796;4.372;2022-08-18T01:25:13;67.05;;;42.83;;
23358;SDS011;11851;50.796;4.372;2022-08-18T01:28:00;68.97;;;44.38;;
23358;SDS011;11851;50.796;4.372;2022-08-18T01:30:27;69.25;;;45.40;;
23358;SDS011;11851;50.796;4.372;2022-08-18T01:32:54;70.50;;;45.70;;
23358;SDS011;11851;50.796;4.372;2022-08-18T01:35:21;71.55;;;46.22;;
23358;SDS011;11851;50.796;4.372;2022-08-18T01:37:49;71.60;;;46.00;;
23358;SDS011;11851;50.796;4.372;2022-08-18T01:40:16;70.70;;;45.50;;
23358;SDS011;11851;50.796;4.372;2022-08-18T01:42:44;71.97;;;46.13;;
23358;SDS011;11851;50.796;4.372;2022-08-18T01:45:11;77.22;;;48.25;;
23358;SDS011;11851;50.796;4.372;2022-08-18T01:47:38;77.50;;;48.17;;
23358;SDS011;11851;50.796;4.372;2022-08-18T01:50:04;89.18;;;55.97;;
23358;SDS011;11851;50.796;4.372;2022-08-18T01:52:32;81.97;;;52.00;;
23358;SDS011;11851;50.796;4.372;2022-08-18T01:54:59;79.68;;;49.00;;
23358;SDS011;11851;50.796;4.372;2022-08-18T01:57:26;73.80;;;48.40;;
23358;SDS011;11851;50.796;4.372;2022-08-18T01:59:52;74.10;;;48.53;;
23358;SDS011;11851;50.796;4.372;2022-08-18T02:02:22;81.78;;;50.83;;
23358;SDS011;11851;50.796;4.372;2022-08-18T02:04:51;77.95;;;48.45;;
23358;SDS011;11851;50.796;4.372;2022-08-18T02:07:20;80.00;;;50.92;;
23358;SDS011;11851;50.796;4.372;2022-08-18T02:09:46;78.88;;;51.08;;
23358;SDS011;11851;50.796;4.372;2022-08-18T02:12:12;90.18;;;54.20;;
23358;SDS011;11851;50.796;4.372;2022-08-18T02:14:38;86.25;;;54.33;;
23358;SDS011;11851;50.796;4.372;2022-08-18T02:17:05;102.70;;;59.65;;
23358;SDS011;11851;50.796;4.372;2022-08-18T02:19:33;117.40;;;66.82;;
23358;SDS011;11851;50.796;4.372;2022-08-18T02:22:01;115.97;;;64.35;;
23358;SDS011;11851;50.796;4.372;2022-08-18T02:24:27;122.32;;;67.00;;
23358;SDS011;11851;50.796;4.372;2022-08-18T02:26:53;124.85;;;69.03;;
23358;SDS011;11851;50.796;4.372;2022-08-18T02:29:19;119.05;;;66.50;;
23358;SDS011;11851;50.796;4.372;2022-08-18T02:31:44;103.95;;;59.53;;
23358;SDS011;11851;50.796;4.372;2022-08-18T02:34:10;107.65;;;60.65;;
23358;SDS011;11851;50.796;4.372;2022-08-18T02:36:36;109.63;;;62.55;;
23358;SDS011;11851;50.796;4.372;2022-08-18T02:39:02;110.07;;;61.78;;
23358;SDS011;11851;50.796;4.372;2022-08-18T02:41:28;114.45;;;63.83;;
23358;SDS011;11851;50.796;4.372;2022-08-18T02:43:55;115.18;;;63.38;;
23358;SDS011;11851;50.796;4.372;2022-08-18T02:46:21;108.32;;;63.22;;
23358;SDS011;11851;50.796;4.372;2022-08-18T02:48:47;112.65;;;62.47;;
23358;SDS011;11851;50.796;4.372;2022-08-18T02:51:15;103.93;;;61.92;;
23358;SDS011;11851;50.796;4.372;2022-08-18T02:53:43;112.35;;;62.13;;
23358;SDS011;11851;50.796;4.372;2022-08-18T02:56:31;115.55;;;60.95;;
23358;SDS011;11851;50.796;4.372;2022-08-18T03:01:25;113.43;;;63.70;;
23358;SDS011;11851;50.796;4.372;2022-08-18T03:03:57;114.55;;;63.42;;
23358;SDS011;11851;50.796;4.372;2022-08-18T03:06:24;119.53;;;64.43;;
23358;SDS011;11851;50.796;4.372;2022-08-18T03:08:52;129.90;;;69.13;;
23358;SDS011;11851;50.796;4.372;2022-08-18T03:11:19;120.45;;;64.85;;
23358;SDS011;11851;50.796;4.372;2022-08-18T03:13:47;117.50;;;62.55;;
23358;SDS011;11851;50.796;4.372;2022-08-18T03:16:13;112.28;;;63.00;;
23358;SDS011;11851;50.796;4.372;2022-08-18T03:18:41;113.03;;;61.80;;
23358;SDS011;11851;50.796;4.372;2022-08-18T03:21:07;116.65;;;64.10;;
23358;SDS011;11851;50.796;4.372;2022-08-18T03:23:34;112.05;;;62.53;;
23358;SDS011;11851;50.796;4.372;2022-08-18T03:26:00;116.57;;;62.47;;
23358;SDS011;11851;50.796;4.372;2022-08-18T03:28:26;108.70;;;60.00;;
23358;SDS011;11851;50.796;4.372;2022-08-18T03:30:53;119.28;;;64.43;;
23358;SDS011;11851;50.796;4.372;2022-08-18T03:33:19;121.38;;;65.90;;
23358;SDS011;11851;50.796;4.372;2022-08-18T03:35:45;116.80;;;64.63;;
23358;SDS011;11851;50.796;4.372;2022-08-18T03:38:11;117.10;;;63.10;;
23358;SDS011;11851;50.796;4.372;2022-08-18T03:40:37;110.28;;;61.20;;
23358;SDS011;11851;50.796;4.372;2022-08-18T03:43:03;106.25;;;58.20;;
23358;SDS011;11851;50.796;4.372;2022-08-18T03:45:33;112.70;;;61.45;;
23358;SDS011;11851;50.796;4.372;2022-08-18T03:47:59;110.10;;;61.30;;
23358;SDS011;11851;50.796;4.372;2022-08-18T03:50:27;111.25;;;59.92;;
23358;SDS011;11851;50.796;4.372;2022-08-18T03:52:53;113.90;;;61.78;;
23358;SDS011;11851;50.796;4.372;2022-08-18T03:55:23;103.78;;;58.80;;
23358;SDS011;11851;50.796;4.372;2022-08-18T03:57:52;106.10;;;58.63;;
23358;SDS011;11851;50.796;4.372;2022-08-18T04:00:19;99.38;;;58.47;;
23358;SDS011;11851;50.796;4.372;2022-08-18T04:02:47;106.97;;;59.05;;
23358;SDS011;11851;50.796;4.372;2022-08-18T04:05:12;99.05;;;59.08;;
23358;SDS011;11851;50.796;4.372;2022-08-18T04:07:38;101.10;;;57.30;;
23358;SDS011;11851;50.796;4.372;2022-08-18T04:10:04;106.32;;;60.45;;
23358;SDS011;11851;50.796;4.372;2022-08-18T04:12:30;102.55;;;56.95;;
23358;SDS011;11851;50.796;4.372;2022-08-18T04:14:56;110.63;;;58.35;;
23358;SDS011;11851;50.796;4.372;2022-08-18T04:17:22;105.57;;;59.30;;
23358;SDS011;11851;50.796;4.372;2022-08-18T04:19:51;99.13;;;57.78;;
23358;SDS011;11851;50.796;4.372;2022-08-18T04:22:17;101.35;;;56.88;;
23358;SDS011;11851;50.796;4.372;2022-08-18T04:24:43;94.82;;;55.25;;
23358;SDS011;11851;50.796;4.372;2022-08-18T04:27:09;92.30;;;55.42;;
23358;SDS011;11851;50.796;4.372;2022-08-18T04:29:35;94.00;;;54.03;;
23358;SDS011;11851;50.796;4.372;2022-08-18T04:32:01;101.60;;;58.75;;
23358;SDS011;11851;50.796;4.372;2022-08-18T04:34:30;102.05;;;58.95;;
23358;SDS011;11851;50.796;4.372;2022-08-18T04:36:57;102.82;;;58.25;;
23358;SDS011;11851;50.796;4.372;2022-08-18T04:39:23;118.45;;;63.97;;
23358;SDS011;11851;50.796;4.372;2022-08-18T04:41:50;116.65;;;63.22;;
23358;SDS011;11851;50.796;4.372;2022-08-18T04:44:16;115.80;;;63.80;;
23358;SDS011;11851;50.796;4.372;2022-08-18T04:46:52;116.57;;;61.45;;
23358;SDS011;11851;50.796;4.372;2022-08-18T04:49:19;114.35;;;62.65;;
23358;SDS011;11851;50.796;4.372;2022-08-18T04:51:48;118.95;;;63.47;;
23358;SDS011;11851;50.796;4.372;2022-08-18T04:54:34;125.07;;;65.30;;
23358;SDS011;11851;50.796;4.372;2022-08-18T04:57:05;127.10;;;65.70;;
23358;SDS011;11851;50.796;4.372;2022-08-18T04:59:43;133.45;;;69.32;;
23358;SDS011;11851;50.796;4.372;2022-08-18T05:02:11;146.55;;;71.47;;
23358;SDS011;11851;50.796;4.372;2022-08-18T05:04:39;137.80;;;70.53;;
23358;SDS011;11851;50.796;4.372;2022-08-18T05:07:09;156.00;;;73.38;;
23358;SDS011;11851;50.796;4.372;2022-08-18T05:09:36;161.65;;;77.03;;
23358;SDS011;11851;50.796;4.372;2022-08-18T05:12:03;156.18;;;75.18;;
23358;SDS011;11851;50.796;4.372;2022-08-18T05:14:30;152.00;;;71.93;;
23358;SDS011;11851;50.796;4.372;2022-08-18T05:16:59;150.65;;;72.55;;
23358;SDS011;11851;50.796;4.372;2022-08-18T05:19:26;143.00;;;69.03;;
23358;SDS011;11851;50.796;4.372;2022-08-18T05:21:53;143.55;;;70.60;;
23358;SDS011;11851;50.796;4.372;2022-08-18T05:24:19;153.25;;;71.82;;
23358;SDS011;11851;50.796;4.372;2022-08-18T05:26:45;150.25;;;70.15;;
23358;SDS011;11851;50.796;4.372;2022-08-18T05:29:12;149.18;;;71.18;;
23358;SDS011;11851;50.796;4.372;2022-08-18T05:31:39;147.55;;;72.07;;
23358;SDS011;11851;50.796;4.372;2022-08-18T05:34:06;154.45;;;72.15;;
23358;SDS011;11851;50.796;4.372;2022-08-18T05:44:38;150.50;;;71.25;;
23358;SDS011;11851;50.796;4.372;2022-08-18T05:47:13;168.23;;;73.05;;
23358;SDS011;11851;50.796;4.372;2022-08-18T05:49:42;161.43;;;72.28;;
23358;SDS011;11851;50.796;4.372;2022-08-18T05:52:13;157.20;;;72.50;;
23358;SDS011;11851;50.796;4.372;2022-08-18T05:54:47;168.40;;;72.47;;
23358;SDS011;11851;50.796;4.372;2022-08-18T05:58:09;170.10;;;73.07;;
23358;SDS011;11851;50.796;4.372;2022-08-18T06:00:29;162.02;;;71.90;;
23358;SDS011;11851;50.796;4.372;2022-08-18T06:02:56;159.18;;;71.60;;
23358;SDS011;11851;50.796;4.372;2022-08-18T06:05:28;164.48;;;69.50;;
23358;SDS011;11851;50.796;4.372;2022-08-18T06:08:01;165.60;;;71.82;;
23358;SDS011;11851;50.796;4.372;2022-08-18T06:10:46;158.77;;;69.93;;
23358;SDS011;11851;50.796;4.372;2022-08-18T06:13:13;156.68;;;68.85;;
23358;SDS011;11851;50.796;4.372;2022-08-18T06:35:40;133.20;;;63.42;;
23358;SDS011;11851;50.796;4.372;2022-08-18T06:46:24;125.93;;;60.35;;
23358;SDS011;11851;50.796;4.372;2022-08-18T06:49:13;121.47;;;61.15;;
23358;SDS011;11851;50.796;4.372;2022-08-18T06:51:47;125.43;;;60.47;;
23358;SDS011;11851;50.796;4.372;2022-08-18T06:56:46;122.63;;;60.53;;
23358;SDS011;11851;50.796;4.372;2022-08-18T07:07:39;112.13;;;57.25;;
23358;SDS011;11851;50.796;4.372;2022-08-18T07:12:40;118.85;;;58.15;;
23358;SDS011;11851;50.796;4.372;2022-08-18T07:15:06;112.03;;;57.67;;
23358;SDS011;11851;50.796;4.372;2022-08-18T07:17:36;109.68;;;57.03;;
23358;SDS011;11851;50.796;4.372;2022-08-18T07:22:54;113.25;;;57.60;;
23358;SDS011;11851;50.796;4.372;2022-08-18T07:25:37;115.30;;;59.95;;
23358;SDS011;11851;50.796;4.372;2022-08-18T07:28:12;111.15;;;59.08;;
23358;SDS011;11851;50.796;4.372;2022-08-18T07:31:06;107.03;;;56.95;;
23358;SDS011;11851;50.796;4.372;2022-08-18T07:33:54;97.25;;;54.63;;
23358;SDS011;11851;50.796;4.372;2022-08-18T07:36:26;99.93;;;54.25;;
23358;SDS011;11851;50.796;4.372;2022-08-18T07:41:48;93.32;;;50.25;;
23358;SDS011;11851;50.796;4.372;2022-08-18T07:44:23;85.63;;;48.53;;
23358;SDS011;11851;50.796;4.372;2022-08-18T07:49:23;81.78;;;45.00;;
23358;SDS011;11851;50.796;4.372;2022-08-18T07:51:53;74.05;;;42.60;;
23358;SDS011;11851;50.796;4.372;2022-08-18T07:59:57;61.90;;;37.78;;
23358;SDS011;11851;50.796;4.372;2022-08-18T08:18:36;54.03;;;35.22;;
23358;SDS011;11851;50.796;4.372;2022-08-18T08:21:09;51.65;;;34.42;;
23358;SDS011;11851;50.796;4.372;2022-08-18T08:34:44;40.00;;;25.60;;
23358;SDS011;11851;50.796;4.372;2022-08-18T08:37:43;29.10;;;20.63;;
23358;SDS011;11851;50.796;4.372;2022-08-18T08:40:16;35.50;;;22.92;;
23358;SDS011;11851;50.796;4.372;2022-08-18T08:42:57;34.90;;;22.52;;
23358;SDS011;11851;50.796;4.372;2022-08-18T08:45:33;27.15;;;21.92;;
23358;SDS011;11851;50.796;4.372;2022-08-18T08:48:03;24.35;;;19.25;;
23358;SDS011;11851;50.796;4.372;2022-08-18T08:50:49;30.25;;;18.17;;
23358;SDS011;11851;50.796;4.372;2022-08-18T08:53:24;29.58;;;18.17;;
23358;SDS011;11851;50.796;4.372;2022-08-18T08:55:55;22.95;;;16.42;;
23358;SDS011;11851;50.796;4.372;2022-08-18T09:00:55;16.38;;;12.55;;
23358;SDS011;11851;50.796;4.372;2022-08-18T09:06:08;20.95;;;14.50;;
23358;SDS011;11851;50.796;4.372;2022-08-18T09:28:09;18.27;;;13.50;;
23358;SDS011;11851;50.796;4.372;2022-08-18T09:33:32;25.02;;;15.65;;
23358;SDS011;11851;50.796;4.372;2022-08-18T09:42:15;19.02;;;11.40;;
23358;SDS011;11851;50.796;4.372;2022-08-18T09:49:48;14.82;;;9.55;;
23358;SDS011;11851;50.796;4.372;2022-08-18T09:55:34;13.75;;;8.15;;
23358;SDS011;11851;50.796;4.372;2022-08-18T10:06:38;17.08;;;11.10;;
23358;SDS011;11851;50.796;4.372;2022-08-18T10:09:14;16.40;;;10.25;;
23358;SDS011;11851;50.796;4.372;2022-08-18T10:14:43;13.10;;;7.97;;
23358;SDS011;11851;50.796;4.372;2022-08-18T10:22:50;13.90;;;9.10;;
23358;SDS011;11851;50.796;4.372;2022-08-18T10:28:07;15.07;;;9.27;;
23358;SDS011;11851;50.796;4.372;2022-08-18T10:33:10;15.70;;;10.18;;
23358;SDS011;11851;50.796;4.372;2022-08-18T10:40:43;15.07;;;9.05;;
23358;SDS011;11851;50.796;4.372;2022-08-18T10:43:40;14.27;;;8.27;;
23358;SDS011;11851;50.796;4.372;2022-08-18T10:46:21;21.50;;;9.25;;
23358;SDS011;11851;50.796;4.372;2022-08-18T10:57:04;19.05;;;10.13;;
23358;SDS011;11851;50.796;4.372;2022-08-18T11:05:06;12.30;;;8.30;;
23358;SDS011;11851;50.796;4.372;2022-08-18T11:07:34;11.38;;;7.70;;
23358;SDS011;11851;50.796;4.372;2022-08-18T11:10:13;15.07;;;7.75;;
23358;SDS011;11851;50.796;4.372;2022-08-18T11:26:31;14.48;;;7.72;;
23358;SDS011;11851;50.796;4.372;2022-08-18T11:28:59;12.57;;;8.15;;
23358;SDS011;11851;50.796;4.372;2022-08-18T11:31:26;11.88;;;9.18;;
23358;SDS011;11851;50.796;4.372;2022-08-18T11:33:52;11.07;;;8.05;;
23358;SDS011;11851;50.796;4.372;2022-08-18T11:36:17;15.82;;;9.50;;
23358;SDS011;11851;50.796;4.372;2022-08-18T11:38:54;11.85;;;8.63;;
23358;SDS011;11851;50.796;4.372;2022-08-18T11:41:24;10.35;;;7.97;;
23358;SDS011;11851;50.796;4.372;2022-08-18T11:43:55;16.50;;;8.23;;
23358;SDS011;11851;50.796;4.372;2022-08-18T11:46:28;12.50;;;8.43;;
23358;SDS011;11851;50.796;4.372;2022-08-18T11:48:55;11.98;;;8.82;;
23358;SDS011;11851;50.796;4.372;2022-08-18T11:51:26;13.45;;;8.05;;
23358;SDS011;11851;50.796;4.372;2022-08-18T11:53:55;12.60;;;8.73;;
23358;SDS011;11851;50.796;4.372;2022-08-18T11:56:37;12.38;;;8.98;;
23358;SDS011;11851;50.796;4.372;2022-08-18T11:59:07;13.73;;;8.50;;
23358;SDS011;11851;50.796;4.372;2022-08-18T12:01:56;16.30;;;7.65;;
23358;SDS011;11851;50.796;4.372;2022-08-18T12:07:04;8.55;;;7.22;;
23358;SDS011;11851;50.796;4.372;2022-08-18T12:14:52;9.93;;;8.27;;
23358;SDS011;11851;50.796;4.372;2022-08-18T12:17:21;13.77;;;7.85;;
23358;SDS011;11851;50.796;4.372;2022-08-18T12:19:47;11.23;;;7.85;;
23358;SDS011;11851;50.796;4.372;2022-08-18T12:22:18;12.55;;;7.53;;
23358;SDS011;11851;50.796;4.372;2022-08-18T12:24:48;10.90;;;7.82;;
23358;SDS011;11851;50.796;4.372;2022-08-18T12:27:15;11.68;;;8.18;;
23358;SDS011;11851;50.796;4.372;2022-08-18T12:29:43;13.55;;;7.75;;
23358;SDS011;11851;50.796;4.372;2022-08-18T12:32:09;13.25;;;7.35;;
23358;SDS011;11851;50.796;4.372;2022-08-18T12:34:35;13.35;;;8.25;;
23358;SDS011;11851;50.796;4.372;2022-08-18T12:37:01;13.73;;;7.68;;
23358;SDS011;11851;50.796;4.372;2022-08-18T12:39:28;12.93;;;7.68;;
23358;SDS011;11851;50.796;4.372;2022-08-18T12:41:55;12.20;;;7.95;;
23358;SDS011;11851;50.796;4.372;2022-08-18T12:44:21;10.02;;;7.43;;
23358;SDS011;11851;50.796;4.372;2022-08-18T12:46:46;12.98;;;7.40;;
23358;SDS011;11851;50.796;4.372;2022-08-18T12:49:14;12.90;;;7.63;;
23358;SDS011;11851;50.796;4.372;2022-08-18T12:51:42;10.00;;;8.00;;
23358;SDS011;11851;50.796;4.372;2022-08-18T12:54:08;10.07;;;7.30;;
23358;SDS011;11851;50.796;4.372;2022-08-18T12:56:34;9.52;;;7.60;;
23358;SDS011;11851;50.796;4.372;2022-08-18T12:59:01;12.50;;;7.50;;
23358;SDS011;11851;50.796;4.372;2022-08-18T13:01:29;11.73;;;7.78;;
23358;SDS011;11851;50.796;4.372;2022-08-18T13:03:56;8.48;;;7.57;;
23358;SDS011;11851;50.796;4.372;2022-08-18T13:06:23;9.55;;;7.32;;
23358;SDS011;11851;50.796;4.372;2022-08-18T13:08:50;9.00;;;7.03;;
23358;SDS011;11851;50.796;4.372;2022-08-18T13:11:17;7.55;;;6.72;;
23358;SDS011;11851;50.796;4.372;2022-08-18T13:13:43;10.88;;;7.95;;
23358;SDS011;11851;50.796;4.372;2022-08-18T13:16:10;10.07;;;8.20;;
23358;SDS011;11851;50.796;4.372;2022-08-18T13:18:37;9.57;;;7.30;;
23358;SDS011;11851;50.796;4.372;2022-08-18T13:21:05;9.68;;;7.53;;
23358;SDS011;11851;50.796;4.372;2022-08-18T13:23:32;10.85;;;7.38;;
23358;SDS011;11851;50.796;4.372;2022-08-18T13:25:59;8.63;;;7.28;;
23358;SDS011;11851;50.796;4.372;2022-08-18T13:28:25;8.40;;;7.45;;
23358;SDS011;11851;50.796;4.372;2022-08-18T13:30:52;7.97;;;7.07;;
23358;SDS011;11851;50.796;4.372;2022-08-18T13:33:18;8.50;;;7.70;;
23358;SDS011;11851;50.796;4.372;2022-08-18T13:35:45;10.10;;;7.72;;
23358;SDS011;11851;50.796;4.372;2022-08-18T13:38:12;11.43;;;7.75;;
23358;SDS011;11851;50.796;4.372;2022-08-18T13:40:39;11.88;;;7.70;;
23358;SDS011;11851;50.796;4.372;2022-08-18T13:43:04;10.15;;;8.45;;
23358;SDS011;11851;50.796;4.372;2022-08-18T13:45:32;9.40;;;7.82;;
23358;SDS011;11851;50.796;4.372;2022-08-18T13:47:58;8.82;;;7.32;;
23358;SDS011;11851;50.796;4.372;2022-08-18T13:50:24;9.63;;;7.90;;
23358;SDS011;11851;50.796;4.372;2022-08-18T13:52:50;12.15;;;8.07;;
23358;SDS011;11851;50.796;4.372;2022-08-18T13:55:17;11.23;;;8.88;;
23358;SDS011;11851;50.796;4.372;2022-08-18T13:57:43;10.80;;;8.02;;
23358;SDS011;11851;50.796;4.372;2022-08-18T14:00:14;14.25;;;8.00;;
23358;SDS011;11851;50.796;4.372;2022-08-18T14:02:43;9.18;;;7.72;;
23358;SDS011;11851;50.796;4.372;2022-08-18T14:05:12;10.20;;;8.13;;
23358;SDS011;11851;50.796;4.372;2022-08-18T14:07:39;12.30;;;7.75;;
23358;SDS011;11851;50.796;4.372;2022-08-18T14:10:06;9.70;;;7.78;;
23358;SDS011;11851;50.796;4.372;2022-08-18T14:12:33;8.45;;;7.13;;
23358;SDS011;11851;50.796;4.372;2022-08-18T14:15:01;9.25;;;6.40;;
23358;SDS011;11851;50.796;4.372;2022-08-18T14:17:30;8.05;;;6.03;;
23358;SDS011;11851;50.796;4.372;2022-08-18T14:19:57;9.43;;;6.00;;
23358;SDS011;11851;50.796;4.372;2022-08-18T14:22:41;8.80;;;5.97;;
23358;SDS011;11851;50.796;4.372;2022-08-18T14:25:26;8.82;;;6.13;;
23358;SDS011;11851;50.796;4.372;2022-08-18T14:28:10;7.78;;;6.25;;
23358;SDS011;11851;50.796;4.372;2022-08-18T14:30:36;8.07;;;6.00;;
23358;SDS011;11851;50.796;4.372;2022-08-18T14:33:06;7.15;;;6.07;;
23358;SDS011;11851;50.796;4.372;2022-08-18T14:35:34;6.65;;;5.93;;
23358;SDS011;11851;50.796;4.372;2022-08-18T14:38:00;8.32;;;6.25;;
23358;SDS011;11851;50.796;4.372;2022-08-18T14:40:28;9.77;;;5.63;;
23358;SDS011;11851;50.796;4.372;2022-08-18T14:42:55;8.55;;;5.63;;
23358;SDS011;11851;50.796;4.372;2022-08-18T14:45:22;8.57;;;6.20;;
23358;SDS011;11851;50.796;4.372;2022-08-18T14:47:49;7.18;;;5.80;;
23358;SDS011;11851;50.796;4.372;2022-08-18T14:50:17;6.57;;;5.70;;
23358;SDS011;11851;50.796;4.372;2022-08-18T14:52:44;7.28;;;6.25;;
23358;SDS011;11851;50.796;4.372;2022-08-18T14:55:12;11.18;;;6.53;;
23358;SDS011;11851;50.796;4.372;2022-08-18T14:57:39;6.65;;;6.05;;
23358;SDS011;11851;50.796;4.372;2022-08-18T15:00:08;10.23;;;7.15;;
23358;SDS011;11851;50.796;4.372;2022-08-18T15:02:38;12.13;;;7.47;;
23358;SDS011;11851;50.796;4.372;2022-08-18T15:05:08;9.00;;;6.93;;
23358;SDS011;11851;50.796;4.372;2022-08-18T15:07:34;7.97;;;6.65;;
23358;SDS011;11851;50.796;4.372;2022-08-18T15:10:04;9.18;;;7.63;;
23358;SDS011;11851;50.796;4.372;2022-08-18T15:12:32;10.00;;;7.90;;
23358;SDS011;11851;50.796;4.372;2022-08-18T15:14:57;12.70;;;9.00;;
23358;SDS011;11851;50.796;4.372;2022-08-18T15:17:24;14.65;;;10.20;;
23358;SDS011;11851;50.796;4.372;2022-08-18T15:19:51;12.48;;;10.30;;
23358;SDS011;11851;50.796;4.372;2022-08-18T15:22:17;15.75;;;11.45;;
23358;SDS011;11851;50.796;4.372;2022-08-18T15:25:02;11.88;;;9.52;;
23358;SDS011;11851;50.796;4.372;2022-08-18T15:27:46;13.35;;;9.95;;
23358;SDS011;11851;50.796;4.372;2022-08-18T15:30:13;23.52;;;11.88;;
23358;SDS011;11851;50.796;4.372;2022-08-18T15:32:41;12.50;;;10.00;;
23358;SDS011;11851;50.796;4.372;2022-08-18T15:35:07;14.20;;;10.93;;
23358;SDS011;11851;50.796;4.372;2022-08-18T15:37:34;14.35;;;10.93;;
23358;SDS011;11851;50.796;4.372;2022-08-18T15:40:07;14.70;;;9.05;;
23358;SDS011;11851;50.796;4.372;2022-08-18T15:42:44;11.82;;;10.15;;
23358;SDS011;11851;50.796;4.372;2022-08-18T15:45:20;13.25;;;10.50;;
23358;SDS011;11851;50.796;4.372;2022-08-18T15:47:51;12.63;;;10.55;;
23358;SDS011;11851;50.796;4.372;2022-08-18T15:50:18;17.63;;;11.73;;
23358;SDS011;11851;50.796;4.372;2022-08-18T15:52:44;13.82;;;10.05;;
23358;SDS011;11851;50.796;4.372;2022-08-18T15:55:18;13.20;;;10.52;;
23358;SDS011;11851;50.796;4.372;2022-08-18T15:57:46;14.07;;;10.90;;
23358;SDS011;11851;50.796;4.372;2022-08-18T16:00:13;16.23;;;10.55;;
23358;SDS011;11851;50.796;4.372;2022-08-18T16:02:43;14.80;;;12.55;;
23358;SDS011;11851;50.796;4.372;2022-08-18T16:05:14;14.10;;;10.52;;
23358;SDS011;11851;50.796;4.372;2022-08-18T16:07:41;12.88;;;10.65;;
23358;SDS011;11851;50.796;4.372;2022-08-18T16:10:07;13.98;;;9.43;;
23358;SDS011;11851;50.796;4.372;2022-08-18T16:12:34;17.23;;;12.45;;
23358;SDS011;11851;50.796;4.372;2022-08-18T16:15:00;16.65;;;10.88;;
23358;SDS011;11851;50.796;4.372;2022-08-18T16:17:27;15.85;;;11.25;;
23358;SDS011;11851;50.796;4.372;2022-08-18T16:19:54;13.80;;;11.23;;
23358;SDS011;11851;50.796;4.372;2022-08-18T16:22:20;14.05;;;11.43;;
23358;SDS011;11851;50.796;4.372;2022-08-18T16:24:47;14.18;;;11.00;;
23358;SDS011;11851;50.796;4.372;2022-08-18T16:27:13;17.38;;;13.68;;
23358;SDS011;11851;50.796;4.372;2022-08-18T16:29:38;17.63;;;14.65;;
23358;SDS011;11851;50.796;4.372;2022-08-18T16:32:04;15.98;;;13.48;;
23358;SDS011;11851;50.796;4.372;2022-08-18T16:34:30;16.63;;;12.60;;
23358;SDS011;11851;50.796;4.372;2022-08-18T16:36:56;14.82;;;11.50;;
23358;SDS011;11851;50.796;4.372;2022-08-18T16:39:22;15.75;;;12.98;;
23358;SDS011;11851;50.796;4.372;2022-08-18T16:41:48;13.05;;;11.23;;
23358;SDS011;11851;50.796;4.372;2022-08-18T16:44:13;17.50;;;10.20;;
23358;SDS011;11851;50.796;4.372;2022-08-18T16:46:41;14.70;;;12.05;;
23358;SDS011;11851;50.796;4.372;2022-08-18T16:49:07;14.60;;;11.35;;
23358;SDS011;11851;50.796;4.372;2022-08-18T16:51:33;11.30;;;9.73;;
23358;SDS011;11851;50.796;4.372;2022-08-18T16:53:59;17.50;;;10.07;;
23358;SDS011;11851;50.796;4.372;2022-08-18T16:56:26;12.32;;;9.27;;
23358;SDS011;11851;50.796;4.372;2022-08-18T16:58:53;10.77;;;8.70;;
23358;SDS011;11851;50.796;4.372;2022-08-18T17:01:38;12.02;;;8.30;;
23358;SDS011;11851;50.796;4.372;2022-08-18T17:04:25;12.55;;;8.50;;
23358;SDS011;11851;50.796;4.372;2022-08-18T17:06:54;8.32;;;7.45;;
23358;SDS011;11851;50.796;4.372;2022-08-18T17:09:20;14.50;;;7.53;;
23358;SDS011;11851;50.796;4.372;2022-08-18T17:11:46;7.65;;;6.82;;
23358;SDS011;11851;50.796;4.372;2022-08-18T17:14:13;10.25;;;6.50;;
23358;SDS011;11851;50.796;4.372;2022-08-18T17:16:39;9.75;;;7.03;;
23358;SDS011;11851;50.796;4.372;2022-08-18T17:19:06;9.25;;;6.38;;
23358;SDS011;11851;50.796;4.372;2022-08-18T17:21:32;6.25;;;5.65;;
23358;SDS011;11851;50.796;4.372;2022-08-18T17:24:00;8.05;;;5.72;;
23358;SDS011;11851;50.796;4.372;2022-08-18T17:32:02;7.78;;;5.70;;
23358;SDS011;11851;50.796;4.372;2022-08-18T17:34:36;7.00;;;5.93;;
23358;SDS011;11851;50.796;4.372;2022-08-18T17:37:09;11.05;;;5.80;;
23358;SDS011;11851;50.796;4.372;2022-08-18T17:39:40;10.60;;;6.65;;
23358;SDS011;11851;50.796;4.372;2022-08-18T17:42:13;8.55;;;6.72;;
23358;SDS011;11851;50.796;4.372;2022-08-18T17:44:55;8.05;;;6.68;;
23358;SDS011;11851;50.796;4.372;2022-08-18T17:53:16;8.55;;;6.80;;
23358;SDS011;11851;50.796;4.372;2022-08-18T17:58:41;8.50;;;6.50;;
23358;SDS011;11851;50.796;4.372;2022-08-18T18:01:11;7.53;;;6.35;;
23358;SDS011;11851;50.796;4.372;2022-08-18T18:03:37;7.38;;;6.13;;
23358;SDS011;11851;50.796;4.372;2022-08-18T18:08:46;8.27;;;6.30;;
23358;SDS011;11851;50.796;4.372;2022-08-18T18:11:24;11.20;;;6.45;;
23358;SDS011;11851;50.796;4.372;2022-08-18T18:13:54;9.13;;;6.20;;
23358;SDS011;11851;50.796;4.372;2022-08-18T18:16:23;9.73;;;6.10;;
23358;SDS011;11851;50.796;4.372;2022-08-18T18:18:57;7.53;;;6.03;;
23358;SDS011;11851;50.796;4.372;2022-08-18T18:21:26;7.85;;;6.65;;